createdAt,value
2018-09-02T00:00:21.962Z,17.16
2018-09-02T00:01:21.984Z,17.21
2018-09-02T00:02:22.003Z,17.19
2018-09-02T00:04:21.801Z,17.22
2018-09-02T00:05:22.076Z,17.22
2018-09-02T00:06:21.837Z,17.15
2018-09-02T00:07:36.782Z,17.22
2018-09-02T00:08:22.143Z,17.16
2018-09-02T00:09:21.907Z,17.06
2018-09-02T00:10:22.190Z,17.08
2018-09-02T00:11:21.697Z,17.03
2018-09-02T00:12:22.233Z,17.07
2018-09-02T00:13:22.256Z,17.04
2018-09-02T00:14:36.942Z,17.19
2018-09-02T00:16:22.067Z,17.07
2018-09-02T00:17:22.091Z,17.19
2018-09-02T00:18:22.378Z,17
2018-09-02T00:19:22.140Z,17.06
2018-09-02T00:20:22.239Z,17.11
2018-09-02T00:21:22.184Z,17.06
2018-09-02T00:22:22.461Z,17.08
2018-09-02T00:23:22.492Z,17.04
2018-09-02T00:24:36.915Z,17.04
2018-09-02T00:25:22.535Z,17
2018-09-02T00:26:22.557Z,17.06
2018-09-02T00:27:22.319Z,16.98
2018-09-02T00:28:22.350Z,17.06
2018-09-02T00:29:22.623Z,16.93
2018-09-02T00:30:22.486Z,16.93
2018-09-02T00:32:22.432Z,16.96
2018-09-02T00:33:23.166Z,16.94
2018-09-02T00:34:22.745Z,16.86
2018-09-02T00:35:22.769Z,16.93
2018-09-02T00:36:22.785Z,16.96
2018-09-02T00:37:22.810Z,16.96
2018-09-02T00:38:22.829Z,16.94
2018-09-02T00:39:22.863Z,16.96
2018-09-02T00:40:22.620Z,16.89
2018-09-02T00:41:22.902Z,16.88
2018-09-02T00:42:22.920Z,16.93
2018-09-02T00:43:22.942Z,16.97
2018-09-02T00:44:22.969Z,16.94
2018-09-02T00:45:22.986Z,16.91
2018-09-02T00:46:37.672Z,16.89
2018-09-02T00:47:23.033Z,16.94
2018-09-02T00:48:23.059Z,16.94
2018-09-02T00:49:23.087Z,16.94
2018-09-02T00:50:23.107Z,16.85
2018-09-02T00:51:23.125Z,16.97
2018-09-02T00:52:23.151Z,16.88
2018-09-02T00:53:23.172Z,16.85
2018-09-02T00:54:23.200Z,16.82
2018-09-02T00:55:37.878Z,16.82
2018-09-02T00:56:23.080Z,16.78
2018-09-02T00:57:23.261Z,16.78
2018-09-02T00:58:23.293Z,16.82
2018-09-02T00:59:23.311Z,16.81
2018-09-02T01:00:23.327Z,16.78
2018-09-02T01:01:23.097Z,16.76
2018-09-02T01:02:38.038Z,16.81
2018-09-02T01:03:23.408Z,16.7
2018-09-02T01:04:23.423Z,16.66
2018-09-02T01:05:23.444Z,16.66
2018-09-02T01:06:23.469Z,16.73
2018-09-02T01:07:23.492Z,16.67
2018-09-02T01:08:23.254Z,16.64
2018-09-02T01:09:23.278Z,16.7
2018-09-02T01:10:23.559Z,16.63
2018-09-02T01:11:38.241Z,16.66
2018-09-02T01:12:23.609Z,16.66
2018-09-02T01:13:38.284Z,16.64
2018-09-02T01:14:23.389Z,16.61
2018-09-02T01:15:23.670Z,16.57
2018-09-02T01:16:23.693Z,16.56
2018-09-02T01:17:23.732Z,16.53
2018-09-02T01:18:38.397Z,16.48
2018-09-02T01:19:23.759Z,16.49
2018-09-02T01:20:23.781Z,16.48
2018-09-02T01:21:23.807Z,16.45
2018-09-02T01:22:23.826Z,16.53
2018-09-02T01:23:23.608Z,16.46
2018-09-02T01:24:23.887Z,16.5
2018-09-02T01:25:23.639Z,16.39
2018-09-02T01:26:23.965Z,16.41
2018-09-02T01:27:38.602Z,16.45
2018-09-02T01:28:23.965Z,16.41
2018-09-02T01:29:23.985Z,16.45
2018-09-02T01:30:24.010Z,16.42
2018-09-02T01:31:24.030Z,16.42
2018-09-02T01:32:23.799Z,16.35
2018-09-02T01:33:24.080Z,16.34
2018-09-02T01:34:38.759Z,16.49
2018-09-02T01:35:24.126Z,16.38
2018-09-02T01:36:24.140Z,16.43
2018-09-02T01:37:24.165Z,16.33
2018-09-02T01:38:24.194Z,16.35
2018-09-02T01:39:24.213Z,16.39
2018-09-02T01:40:24.241Z,16.33
2018-09-02T01:41:24.261Z,16.33
2018-09-02T01:42:38.941Z,16.23
2018-09-02T01:43:24.304Z,16.25
2018-09-02T01:44:24.383Z,16.25
2018-09-02T01:45:24.089Z,16.28
2018-09-02T01:46:24.112Z,16.28
2018-09-02T01:47:24.142Z,16.24
2018-09-02T01:49:39.106Z,16.14
2018-09-02T01:50:24.466Z,16.15
2018-09-02T01:51:24.486Z,16.3
2018-09-02T01:52:24.509Z,16.25
2018-09-02T01:53:24.534Z,16.21
2018-09-02T01:54:39.216Z,16.21
2018-09-02T01:55:24.576Z,16.25
2018-09-02T01:56:24.599Z,16.2
2018-09-02T01:57:24.620Z,16.27
2018-09-02T01:58:39.302Z,16.21
2018-09-02T01:59:24.670Z,16.21
2018-09-02T02:00:24.685Z,16.2
2018-09-02T02:01:24.709Z,16.2
2018-09-02T02:02:24.472Z,16.31
2018-09-02T02:03:24.751Z,16.21
2018-09-02T02:04:24.792Z,16.25
2018-09-02T02:06:24.825Z,16.3
2018-09-02T02:07:24.583Z,16.23
2018-09-02T02:08:24.868Z,16.28
2018-09-02T02:09:24.889Z,16.31
2018-09-02T02:10:24.910Z,16.27
2018-09-02T02:11:24.938Z,16.35
2018-09-02T02:12:24.959Z,16.33
2018-09-02T02:13:24.980Z,16.33
2018-09-02T02:14:25.048Z,16.33
2018-09-02T02:15:39.681Z,16.27
2018-09-02T02:16:24.791Z,16.33
2018-09-02T02:17:24.552Z,16.28
2018-09-02T02:18:25.090Z,16.3
2018-09-02T02:19:25.120Z,16.39
2018-09-02T02:20:24.876Z,16.38
2018-09-02T02:21:39.817Z,16.45
2018-09-02T02:24:25.226Z,16.39
2018-09-02T02:25:25.249Z,16.34
2018-09-02T02:27:25.294Z,16.46
2018-09-02T02:28:25.316Z,16.31
2018-09-02T02:29:39.999Z,16.33
2018-09-02T02:30:25.108Z,16.38
2018-09-02T02:31:25.388Z,16.28
2018-09-02T02:32:39.810Z,16.35
2018-09-02T02:33:25.425Z,16.42
2018-09-02T02:34:25.445Z,16.33
2018-09-02T02:35:25.477Z,16.46
2018-09-02T02:36:25.493Z,16.35
2018-09-02T02:37:40.184Z,16.35
2018-09-02T02:38:25.597Z,16.42
2018-09-02T02:41:25.604Z,16.43
2018-09-02T02:42:25.628Z,16.39
2018-09-02T02:43:25.403Z,16.35
2018-09-02T02:44:25.681Z,16.42
2018-09-02T02:45:40.357Z,16.3
2018-09-02T02:46:25.715Z,16.46
2018-09-02T02:47:25.737Z,16.42
2018-09-02T02:48:25.764Z,16.31
2018-09-02T02:49:25.785Z,16.35
2018-09-02T02:50:25.808Z,16.45
2018-09-02T02:52:25.594Z,16.33
2018-09-02T02:53:40.534Z,16.31
2018-09-02T02:54:25.895Z,16.33
2018-09-02T02:56:25.948Z,16.35
2018-09-02T02:57:25.712Z,16.42
2018-09-02T02:58:25.985Z,16.38
2018-09-02T02:59:25.753Z,16.39
2018-09-02T03:00:25.774Z,16.31
2018-09-02T03:01:26.058Z,16.43
2018-09-02T03:02:25.824Z,16.39
2018-09-02T03:03:40.823Z,16.45
2018-09-02T03:04:25.868Z,16.28
2018-09-02T03:05:26.145Z,16.31
2018-09-02T03:06:40.837Z,16.33
2018-09-02T03:07:25.934Z,16.3
2018-09-02T03:08:26.215Z,16.31
2018-09-02T03:09:40.893Z,16.45
2018-09-02T03:11:26.282Z,16.39
2018-09-02T03:12:40.967Z,16.42
2018-09-02T03:13:26.322Z,16.45
2018-09-02T03:14:26.355Z,16.39
2018-09-02T03:15:26.374Z,16.38
2018-09-02T03:16:26.390Z,16.45
2018-09-02T03:17:26.412Z,16.45
2018-09-02T03:18:26.445Z,16.38
2018-09-02T03:19:26.199Z,16.41
2018-09-02T03:20:26.481Z,16.41
2018-09-02T03:21:26.508Z,16.42
2018-09-02T03:22:26.600Z,16.34
2018-09-02T03:23:26.545Z,16.43
2018-09-02T03:24:40.973Z,16.43
2018-09-02T03:25:26.592Z,16.39
2018-09-02T03:26:26.611Z,16.45
2018-09-02T03:27:26.641Z,16.49
2018-09-02T03:28:26.666Z,16.41
2018-09-02T03:29:26.425Z,16.43
2018-09-02T03:30:26.714Z,16.48
2018-09-02T03:31:41.390Z,16.49
2018-09-02T03:32:26.763Z,16.42
2018-09-02T03:33:41.432Z,16.35
2018-09-02T03:34:41.198Z,16.31
2018-09-02T03:35:26.567Z,16.39
2018-09-02T03:36:26.840Z,16.39
2018-09-02T03:37:26.605Z,16.33
2018-09-02T03:38:26.628Z,16.31
2018-09-02T03:39:26.960Z,16.27
2018-09-02T03:40:26.671Z,16.27
2018-09-02T03:42:27.029Z,16.23
2018-09-02T03:43:27.009Z,16.28
2018-09-02T03:44:27.027Z,16.23
2018-09-02T03:45:27.071Z,16.23
2018-09-02T03:46:27.069Z,16.09
2018-09-02T03:47:41.748Z,16.12
2018-09-02T03:48:27.106Z,16.04
2018-09-02T03:49:41.791Z,16.08
2018-09-02T03:50:27.154Z,16.05
2018-09-02T03:51:27.175Z,16.07
2018-09-02T03:52:27.198Z,16.07
2018-09-02T03:53:26.705Z,16.01
2018-09-02T03:54:27.248Z,15.93
2018-09-02T03:55:27.364Z,16
2018-09-02T03:56:41.947Z,16.01
2018-09-02T03:57:27.320Z,15.97
2018-09-02T03:58:27.335Z,15.92
2018-09-02T03:59:27.094Z,15.8
2018-09-02T04:00:27.379Z,15.9
2018-09-02T04:01:27.140Z,15.9
2018-09-02T04:02:42.089Z,15.93
2018-09-02T04:03:27.441Z,15.92
2018-09-02T04:04:27.462Z,15.94
2018-09-02T04:05:27.490Z,15.89
2018-09-02T04:06:42.170Z,15.89
2018-09-02T04:07:27.636Z,15.94
2018-09-02T04:08:27.401Z,16.01
2018-09-02T04:10:27.342Z,15.93
2018-09-02T04:11:27.808Z,15.87
2018-09-02T04:12:42.302Z,15.92
2018-09-02T04:14:27.428Z,15.96
2018-09-02T04:15:42.375Z,15.84
2018-09-02T04:16:27.733Z,15.86
2018-09-02T04:17:27.496Z,15.78
2018-09-02T04:18:27.780Z,15.86
2018-09-02T04:19:27.835Z,15.83
2018-09-02T04:20:27.564Z,15.89
2018-09-02T04:21:27.842Z,15.89
2018-09-02T04:22:27.865Z,15.89
2018-09-02T04:23:27.890Z,15.82
2018-09-02T04:24:27.655Z,15.86
2018-09-02T04:25:27.933Z,15.84
2018-09-02T04:26:27.958Z,15.86
2018-09-02T04:27:27.979Z,15.83
2018-09-02T04:28:42.660Z,15.89
2018-09-02T04:29:28.021Z,15.86
2018-09-02T04:30:28.045Z,15.82
2018-09-02T04:31:28.072Z,15.87
2018-09-02T04:32:28.101Z,15.84
2018-09-02T04:33:27.918Z,15.89
2018-09-02T04:34:28.140Z,15.83
2018-09-02T04:35:28.155Z,15.78
2018-09-02T04:36:42.839Z,15.86
2018-09-02T04:37:27.948Z,15.83
2018-09-02T04:38:28.242Z,15.76
2018-09-02T04:39:28.242Z,15.86
2018-09-02T04:40:28.276Z,15.72
2018-09-02T04:41:28.293Z,15.89
2018-09-02T04:42:28.310Z,15.92
2018-09-02T04:43:28.336Z,15.83
2018-09-02T04:44:43.016Z,15.9
2018-09-02T04:45:28.655Z,15.87
2018-09-02T04:46:28.141Z,15.83
2018-09-02T04:48:28.191Z,15.87
2018-09-02T04:49:28.467Z,15.87
2018-09-02T04:50:28.489Z,15.93
2018-09-02T04:51:28.516Z,16
2018-09-02T04:52:28.537Z,15.94
2018-09-02T04:53:28.557Z,15.94
2018-09-02T04:54:28.657Z,16.05
2018-09-02T04:55:28.345Z,16
2018-09-02T04:56:28.620Z,16.04
2018-09-02T04:57:28.132Z,15.96
2018-09-02T04:58:28.666Z,15.94
2018-09-02T04:59:43.350Z,15.86
2018-09-02T05:00:29.239Z,15.89
2018-09-02T05:02:43.423Z,15.9
2018-09-02T05:03:28.783Z,15.87
2018-09-02T05:04:28.801Z,15.82
2018-09-02T05:05:43.488Z,15.83
2018-09-02T05:06:28.590Z,15.9
2018-09-02T05:07:28.611Z,15.89
2018-09-02T05:08:28.631Z,16.02
2018-09-02T05:09:28.918Z,16.02
2018-09-02T05:10:28.936Z,16.07
2018-09-02T05:11:28.701Z,16.01
2018-09-02T05:12:28.981Z,16.04
2018-09-02T05:13:29.008Z,15.96
2018-09-02T05:14:29.045Z,15.93
2018-09-02T05:15:29.062Z,16
2018-09-02T05:16:29.067Z,16.11
2018-09-02T05:17:29.094Z,16.05
2018-09-02T05:18:28.856Z,16.14
2018-09-02T05:19:28.877Z,16.23
2018-09-02T05:20:29.161Z,16.23
2018-09-02T05:21:28.926Z,16.27
2018-09-02T05:22:28.979Z,16.15
2018-09-02T05:23:28.712Z,16.17
2018-09-02T05:26:29.293Z,16.24
2018-09-02T05:27:29.319Z,16.23
2018-09-02T05:29:29.366Z,16.12
2018-09-02T05:30:29.383Z,16.07
2018-09-02T05:32:29.430Z,16.21
2018-09-02T05:33:29.453Z,16.23
2018-09-02T05:34:28.957Z,16.21
2018-09-02T05:35:29.497Z,16.25
2018-09-02T05:36:29.517Z,16.31
2018-09-02T05:37:29.547Z,16.35
2018-09-02T05:38:29.563Z,16.25
2018-09-02T05:39:29.335Z,16.3
2018-09-02T05:40:29.612Z,16.25
2018-09-02T05:41:44.290Z,16.31
2018-09-02T05:42:29.650Z,16.3
2018-09-02T05:43:29.682Z,16.33
2018-09-02T05:44:29.698Z,16.3
2018-09-02T05:45:29.720Z,16.23
2018-09-02T05:46:29.742Z,16.21
2018-09-02T05:47:44.424Z,16.2
2018-09-02T05:49:44.477Z,16.2
2018-09-02T05:50:29.577Z,16.27
2018-09-02T05:51:29.859Z,16.23
2018-09-02T05:52:29.875Z,16.23
2018-09-02T05:53:29.906Z,16.11
2018-09-02T05:54:29.665Z,16.11
2018-09-02T05:55:30.014Z,16.11
2018-09-02T05:56:29.709Z,16.15
2018-09-02T05:57:30.051Z,16.17
2018-09-02T05:58:30.011Z,16.21
2018-09-02T05:59:29.779Z,16.28
2018-09-02T06:00:29.797Z,16.3
2018-09-02T06:01:30.084Z,16.27
2018-09-02T06:02:30.104Z,16.23
2018-09-02T06:04:29.889Z,16.04
2018-09-02T06:05:30.174Z,16.07
2018-09-02T06:06:29.934Z,16.02
2018-09-02T06:07:30.211Z,16.05
2018-09-02T06:08:30.238Z,16.08
2018-09-02T06:09:30.256Z,16.04
2018-09-02T06:10:30.282Z,16.09
2018-09-02T06:11:30.142Z,16.04
2018-09-02T06:12:30.325Z,16.15
2018-09-02T06:13:30.351Z,16.08
2018-09-02T06:14:29.849Z,16.17
2018-09-02T06:15:30.132Z,16.11
2018-09-02T06:16:30.420Z,16.2
2018-09-02T06:17:30.741Z,16.12
2018-09-02T06:18:30.458Z,16.31
2018-09-02T06:19:45.140Z,16.24
2018-09-02T06:21:30.009Z,16.35
2018-09-02T06:22:30.031Z,16.31
2018-09-02T06:23:30.572Z,16.28
2018-09-02T06:24:30.589Z,16.31
2018-09-02T06:25:30.613Z,16.38
2018-09-02T06:26:30.636Z,16.31
2018-09-02T06:27:30.658Z,16.43
2018-09-02T06:28:45.341Z,16.39
2018-09-02T06:29:45.362Z,16.34
2018-09-02T06:30:30.471Z,16.39
2018-09-02T06:31:30.490Z,16.46
2018-09-02T06:32:30.255Z,16.45
2018-09-02T06:33:30.794Z,16.39
2018-09-02T06:34:45.481Z,16.45
2018-09-02T06:35:31.204Z,16.39
2018-09-02T06:36:30.864Z,16.46
2018-09-02T06:37:30.884Z,16.53
2018-09-02T06:38:30.923Z,16.52
2018-09-02T06:39:31.359Z,16.67
2018-09-02T06:40:45.614Z,16.73
2018-09-02T06:41:30.972Z,16.75
2018-09-02T06:42:30.739Z,16.75
2018-09-02T06:43:31.124Z,16.82
2018-09-02T06:44:31.039Z,16.81
2018-09-02T06:45:30.813Z,16.88
2018-09-02T06:46:31.086Z,16.91
2018-09-02T06:47:31.111Z,17.01
2018-09-02T06:49:31.206Z,17.07
2018-09-02T06:50:31.174Z,17.15
2018-09-02T06:51:30.945Z,17.12
2018-09-02T06:52:31.220Z,17.12
2018-09-02T06:53:31.248Z,17.14
2018-09-02T06:54:31.266Z,17.15
2018-09-02T06:55:31.297Z,17.11
2018-09-02T06:56:31.320Z,17.19
2018-09-02T06:57:31.080Z,17.04
2018-09-02T06:58:31.460Z,17.18
2018-09-02T06:59:31.125Z,17.22
2018-09-02T07:00:31.402Z,17.25
2018-09-02T07:01:31.429Z,17.28
2018-09-02T07:02:46.108Z,17.26
2018-09-02T07:03:31.472Z,17.19
2018-09-02T07:04:30.979Z,17.22
2018-09-02T07:05:31.528Z,17.25
2018-09-02T07:06:46.280Z,17.25
2018-09-02T07:08:31.684Z,17.12
2018-09-02T07:10:31.631Z,17.04
2018-09-02T07:11:31.450Z,17.15
2018-09-02T07:12:31.677Z,17.11
2018-09-02T07:13:31.748Z,17.11
2018-09-02T07:14:31.659Z,17.15
2018-09-02T07:15:46.413Z,17.07
2018-09-02T07:16:46.482Z,17.14
2018-09-02T07:17:46.448Z,17.14
2018-09-02T07:18:31.556Z,17.01
2018-09-02T07:19:31.837Z,17.04
2018-09-02T07:20:31.860Z,17.03
2018-09-02T07:21:31.882Z,17.12
2018-09-02T07:22:46.567Z,17.18
2018-09-02T07:24:31.961Z,17.31
2018-09-02T07:25:31.972Z,17.38
2018-09-02T07:26:31.995Z,17.48
2018-09-02T07:27:32.029Z,17.44
2018-09-02T07:28:31.782Z,17.58
2018-09-02T07:29:32.063Z,17.68
2018-09-02T07:30:32.094Z,17.7
2018-09-02T07:31:32.459Z,17.89
2018-09-02T07:32:32.142Z,17.99
2018-09-02T07:33:32.256Z,18.08
2018-09-02T07:34:31.921Z,18.1
2018-09-02T07:35:32.208Z,18.33
2018-09-02T07:36:32.237Z,18.32
2018-09-02T07:37:32.265Z,18.37
2018-09-02T07:38:46.935Z,18.37
2018-09-02T07:39:32.298Z,18.3
2018-09-02T07:40:32.324Z,18.26
2018-09-02T07:41:32.350Z,18.32
2018-09-02T07:42:32.366Z,18.29
2018-09-02T07:43:32.414Z,18.36
2018-09-02T07:44:32.415Z,18.37
2018-09-02T07:45:32.438Z,18.44
2018-09-02T07:46:32.462Z,18.54
2018-09-02T07:47:32.483Z,18.55
2018-09-02T07:48:32.508Z,18.47
2018-09-02T07:49:32.529Z,18.52
2018-09-02T07:50:32.554Z,18.39
2018-09-02T07:51:32.574Z,18.5
2018-09-02T07:52:32.596Z,18.51
2018-09-02T07:53:32.623Z,18.42
2018-09-02T07:54:47.307Z,18.48
2018-09-02T07:55:32.665Z,18.44
2018-09-02T07:56:32.436Z,18.44
2018-09-02T07:57:32.455Z,18.35
2018-09-02T07:58:32.742Z,18.45
2018-09-02T07:59:32.503Z,18.42
2018-09-02T08:00:32.783Z,18.41
2018-09-02T08:01:32.812Z,18.39
2018-09-02T08:02:32.863Z,18.29
2018-09-02T08:03:32.860Z,18.3
2018-09-02T08:04:32.881Z,18.33
2018-09-02T08:05:32.898Z,18.27
2018-09-02T08:06:32.927Z,18.3
2018-09-02T08:07:32.692Z,18.26
2018-09-02T08:08:32.971Z,18.27
2018-09-02T08:09:47.398Z,18.29
2018-09-02T08:10:33.022Z,18.33
2018-09-02T08:11:33.047Z,18.42
2018-09-02T08:12:33.116Z,18.52
2018-09-02T08:13:32.830Z,18.62
2018-09-02T08:14:47.776Z,18.5
2018-09-02T08:15:32.882Z,18.39
2018-09-02T08:16:32.905Z,18.35
2018-09-02T08:17:32.923Z,18.37
2018-09-02T08:18:33.201Z,18.39
2018-09-02T08:19:32.971Z,18.33
2018-09-02T08:20:32.737Z,18.3
2018-09-02T08:21:33.272Z,18.26
2018-09-02T08:22:33.368Z,18.37
2018-09-02T08:23:33.319Z,18.23
2018-09-02T08:24:32.831Z,18.29
2018-09-02T08:25:33.523Z,18.23
2018-09-02T08:26:33.684Z,18.25
2018-09-02T08:28:33.447Z,18.26
2018-09-02T08:29:33.474Z,18.18
2018-09-02T08:30:33.226Z,18.15
2018-09-02T08:31:33.503Z,18.1
2018-09-02T08:32:33.537Z,18.18
2018-09-02T08:33:33.551Z,18.26
2018-09-02T08:34:33.580Z,18.25
2018-09-02T08:35:33.601Z,18.3
2018-09-02T08:36:33.626Z,18.3
2018-09-02T08:37:33.129Z,18.3
2018-09-02T08:38:33.669Z,18.39
2018-09-02T08:39:33.436Z,18.35
2018-09-02T08:40:33.713Z,18.41
2018-09-02T08:41:48.460Z,18.37
2018-09-02T08:42:33.762Z,18.44
2018-09-02T08:43:33.784Z,18.33
2018-09-02T08:45:33.833Z,18.45
2018-09-02T08:46:33.856Z,18.58
2018-09-02T08:47:33.885Z,18.63
2018-09-02T08:48:33.644Z,18.63
2018-09-02T08:49:33.678Z,18.65
2018-09-02T08:50:34.243Z,18.85
2018-09-02T08:51:33.970Z,18.85
2018-09-02T08:52:33.992Z,18.88
2018-09-02T08:53:34.019Z,18.99
2018-09-02T08:54:34.042Z,18.95
2018-09-02T08:55:34.063Z,19.04
2018-09-02T08:56:34.092Z,18.98
2018-09-02T08:57:48.773Z,19.06
2018-09-02T08:58:34.135Z,19.02
2018-09-02T08:59:34.206Z,19
2018-09-02T09:00:33.921Z,18.91
2018-09-02T09:01:34.286Z,18.92
2018-09-02T09:02:34.228Z,18.82
2018-09-02T09:03:34.293Z,18.78
2018-09-02T09:04:34.272Z,18.88
2018-09-02T09:05:48.971Z,18.94
2018-09-02T09:06:34.321Z,18.92
2018-09-02T09:07:34.824Z,19.06
2018-09-02T09:08:49.883Z,19.19
2018-09-02T09:09:34.393Z,19.23
2018-09-02T09:10:34.410Z,19.31
2018-09-02T09:11:34.438Z,19.33
2018-09-02T09:12:34.459Z,19.08
2018-09-02T09:13:49.150Z,19.18
2018-09-02T09:14:34.504Z,19.28
2018-09-02T09:16:34.710Z,19.33
2018-09-02T09:17:34.581Z,19.32
2018-09-02T09:19:34.369Z,19.44
2018-09-02T09:20:34.392Z,19.61
2018-09-02T09:21:34.875Z,19.61
2018-09-02T09:22:34.504Z,19.65
2018-09-02T09:23:34.720Z,19.56
2018-09-02T09:25:34.765Z,19.62
2018-09-02T09:26:34.535Z,19.55
2018-09-02T09:27:34.822Z,19.59
2018-09-02T09:28:34.580Z,19.58
2018-09-02T09:29:49.521Z,19.54
2018-09-02T09:30:34.892Z,19.55
2018-09-02T09:31:34.913Z,19.58
2018-09-02T09:32:34.675Z,19.65
2018-09-02T09:33:34.953Z,19.58
2018-09-02T09:34:34.982Z,19.58
2018-09-02T09:35:35.001Z,19.71
2018-09-02T09:36:35.024Z,19.69
2018-09-02T09:37:35.098Z,19.61
2018-09-02T09:38:49.733Z,19.62
2018-09-02T09:39:49.757Z,19.63
2018-09-02T09:40:34.603Z,19.66
2018-09-02T09:41:35.144Z,19.74
2018-09-02T09:42:35.169Z,19.87
2018-09-02T09:43:35.193Z,19.8
2018-09-02T09:44:49.893Z,19.63
2018-09-02T09:45:34.991Z,19.73
2018-09-02T09:46:35.266Z,19.69
2018-09-02T09:47:35.288Z,19.58
2018-09-02T09:48:35.311Z,19.74
2018-09-02T09:49:35.345Z,19.58
2018-09-02T09:50:35.356Z,19.61
2018-09-02T09:51:35.132Z,19.66
2018-09-02T09:52:50.067Z,19.55
2018-09-02T09:53:35.426Z,19.51
2018-09-02T09:54:35.500Z,19.69
2018-09-02T09:55:35.599Z,19.54
2018-09-02T09:56:35.245Z,19.48
2018-09-02T09:57:35.524Z,19.54
2018-09-02T09:58:35.546Z,19.48
2018-09-02T10:00:35.596Z,19.41
2018-09-02T10:01:35.620Z,19.44
2018-09-02T10:02:35.639Z,19.39
2018-09-02T10:03:35.762Z,19.32
2018-09-02T10:04:35.693Z,19.29
2018-09-02T10:05:35.713Z,19.16
2018-09-02T10:06:50.399Z,19.14
2018-09-02T10:07:35.756Z,19.13
2018-09-02T10:08:35.810Z,19.16
2018-09-02T10:09:50.508Z,19.04
2018-09-02T10:10:36.079Z,18.9
2018-09-02T10:11:35.966Z,18.91
2018-09-02T10:12:35.879Z,18.87
2018-09-02T10:13:35.905Z,18.82
2018-09-02T10:15:35.690Z,18.7
2018-09-02T10:16:50.631Z,18.69
2018-09-02T10:17:35.741Z,18.66
2018-09-02T10:19:36.043Z,18.7
2018-09-02T10:20:50.825Z,18.66
2018-09-02T10:21:36.091Z,18.63
2018-09-02T10:22:35.853Z,18.67
2018-09-02T10:23:35.877Z,18.7
2018-09-02T10:24:35.954Z,18.69
2018-09-02T10:25:36.184Z,18.66
2018-09-02T10:27:36.665Z,18.6
2018-09-02T10:28:36.256Z,18.65
2018-09-02T10:29:36.277Z,18.52
2018-09-02T10:30:36.305Z,18.58
2018-09-02T10:31:36.323Z,18.63
2018-09-02T10:32:51.010Z,18.7
2018-09-02T10:34:36.137Z,18.75
2018-09-02T10:35:51.085Z,18.76
2018-09-02T10:36:36.441Z,18.67
2018-09-02T10:37:36.469Z,18.7
2018-09-02T10:38:36.492Z,18.7
2018-09-02T10:39:36.522Z,18.72
2018-09-02T10:40:36.539Z,18.8
2018-09-02T10:41:36.942Z,18.82
2018-09-02T10:42:51.243Z,18.82
2018-09-02T10:43:36.350Z,18.88
2018-09-02T10:44:36.632Z,18.88
2018-09-02T10:45:36.666Z,18.94
2018-09-02T10:46:36.680Z,18.94
2018-09-02T10:47:36.705Z,18.92
2018-09-02T10:48:51.383Z,18.94
2018-09-02T10:50:36.793Z,19.08
2018-09-02T10:52:36.819Z,19.13
2018-09-02T10:53:51.512Z,19.18
2018-09-02T10:54:36.865Z,19.23
2018-09-02T10:55:51.553Z,19.16
2018-09-02T10:56:36.955Z,19.16
2018-09-02T10:57:36.421Z,19.13
2018-09-02T10:58:36.963Z,19.11
2018-09-02T10:59:37.148Z,19.16
2018-09-02T11:00:37.010Z,19.29
2018-09-02T11:01:37.042Z,19.41
2018-09-02T11:02:36.797Z,19.51
2018-09-02T11:03:36.821Z,19.58
2018-09-02T11:04:51.763Z,19.58
2018-09-02T11:05:36.869Z,19.69
2018-09-02T11:06:37.152Z,19.77
2018-09-02T11:07:51.875Z,19.77
2018-09-02T11:08:37.110Z,19.76
2018-09-02T11:09:37.227Z,19.84
2018-09-02T11:10:37.249Z,19.87
2018-09-02T11:11:37.281Z,20.01
2018-09-02T11:12:37.299Z,20.18
2018-09-02T11:13:37.978Z,20.21
2018-09-02T11:14:37.346Z,20.33
2018-09-02T11:15:37.108Z,20.39
2018-09-02T11:16:37.397Z,20.48
2018-09-02T11:17:37.179Z,20.5
2018-09-02T11:19:52.124Z,20.5
2018-09-02T11:20:37.230Z,20.52
2018-09-02T11:22:37.280Z,20.54
2018-09-02T11:23:37.324Z,20.69
2018-09-02T11:24:37.581Z,20.87
2018-09-02T11:25:37.351Z,20.84
2018-09-02T11:26:37.115Z,20.8
2018-09-02T11:27:37.654Z,20.88
2018-09-02T11:28:37.678Z,20.87
2018-09-02T11:29:37.701Z,20.94
2018-09-02T11:30:37.731Z,20.84
2018-09-02T11:31:37.750Z,20.85
2018-09-02T11:32:37.774Z,20.89
2018-09-02T11:33:37.799Z,20.97
2018-09-02T11:34:37.566Z,20.94
2018-09-02T11:35:37.851Z,20.95
2018-09-02T11:36:37.612Z,21.09
2018-09-02T11:38:37.920Z,21.17
2018-09-02T11:39:37.999Z,21.03
2018-09-02T11:40:37.977Z,20.95
2018-09-02T11:41:38.018Z,20.99
2018-09-02T11:42:38.041Z,21.07
2018-09-02T11:43:38.041Z,21.06
2018-09-02T11:45:38.093Z,21.27
2018-09-02T11:46:38.114Z,21.35
2018-09-02T11:47:38.139Z,21.4
2018-09-02T11:48:38.167Z,21.4
2018-09-02T11:49:38.202Z,21.5
2018-09-02T11:50:38.210Z,21.59
2018-09-02T11:51:52.903Z,21.52
2018-09-02T11:52:38.258Z,21.59
2018-09-02T11:53:38.289Z,21.62
2018-09-02T11:55:38.330Z,21.84
2018-09-02T11:56:38.111Z,21.86
2018-09-02T11:57:53.176Z,21.59
2018-09-02T11:58:38.408Z,21.82
2018-09-02T11:59:38.434Z,21.91
2018-09-02T12:00:38.457Z,22
2018-09-02T12:01:53.142Z,22.14
2018-09-02T12:02:38.510Z,22.07
2018-09-02T12:03:38.277Z,22.12
2018-09-02T12:04:38.589Z,22
2018-09-02T12:05:38.322Z,21.98
2018-09-02T12:07:53.290Z,22.22
2018-09-02T12:08:38.657Z,22.22
2018-09-02T12:09:38.676Z,22.17
2018-09-02T12:10:38.700Z,22.25
2018-09-02T12:11:38.854Z,22.4
2018-09-02T12:12:38.754Z,22.28
2018-09-02T12:13:38.784Z,22.27
2018-09-02T12:14:39.471Z,22.22
2018-09-02T12:15:38.822Z,22.24
2018-09-02T12:16:38.850Z,22.3
2018-09-02T12:17:38.740Z,22.22
2018-09-02T12:18:38.897Z,22.24
2018-09-02T12:19:38.932Z,22.14
2018-09-02T12:20:38.949Z,22.12
2018-09-02T12:21:38.978Z,22.1
2018-09-02T12:22:38.995Z,22.09
2018-09-02T12:23:53.425Z,21.94
2018-09-02T12:24:39.052Z,21.96
2018-09-02T12:25:39.074Z,21.88
2018-09-02T12:26:39.095Z,21.99
2018-09-02T12:27:38.871Z,22.1
2018-09-02T12:29:39.171Z,22.14
2018-09-02T12:31:39.104Z,22.22
2018-09-02T12:32:39.252Z,22.28
2018-09-02T12:33:39.269Z,22.49
2018-09-02T12:34:39.029Z,22.45
2018-09-02T12:35:39.316Z,22.52
2018-09-02T12:36:39.339Z,22.72
2018-09-02T12:37:39.306Z,22.79
2018-09-02T12:38:39.398Z,22.92
2018-09-02T12:40:39.180Z,23
2018-09-02T12:42:39.498Z,23
2018-09-02T12:43:39.522Z,23.04
2018-09-02T12:44:39.646Z,23.22
2018-09-02T12:45:39.562Z,23.28
2018-09-02T12:46:39.586Z,23.31
2018-09-02T12:47:39.714Z,23.19
2018-09-02T12:48:39.640Z,23.19
2018-09-02T12:49:54.321Z,23.15
2018-09-02T12:50:39.689Z,23.31
2018-09-02T12:51:39.712Z,23.25
2018-09-02T12:52:39.745Z,23.31
2018-09-02T12:53:39.759Z,23.42
2018-09-02T12:54:54.451Z,23.38
2018-09-02T12:56:39.838Z,23.42
2018-09-02T12:57:39.860Z,23.27
2018-09-02T12:58:54.863Z,23.38
2018-09-02T12:59:39.698Z,23.43
2018-09-02T13:00:39.935Z,23.48
2018-09-02T13:01:39.963Z,23.51
2018-09-02T13:02:54.650Z,23.58
2018-09-02T13:03:40.053Z,23.57
2018-09-02T13:04:54.441Z,23.61
2018-09-02T13:05:40.057Z,23.54
2018-09-02T13:06:40.187Z,23.47
2018-09-02T13:07:40.109Z,23.53
2018-09-02T13:08:39.882Z,23.53
2018-09-02T13:09:39.990Z,23.61
2018-09-02T13:10:39.928Z,23.7
2018-09-02T13:11:40.217Z,23.58
2018-09-02T13:12:40.110Z,23.57
2018-09-02T13:13:40.282Z,23.43
2018-09-02T13:14:40.028Z,23.28
2018-09-02T13:16:40.342Z,23.38
2018-09-02T13:17:40.464Z,23.43
2018-09-02T13:18:40.383Z,23.46
2018-09-02T13:19:40.409Z,23.42
2018-09-02T13:20:54.838Z,23.54
2018-09-02T13:21:40.457Z,23.5
2018-09-02T13:22:40.482Z,23.55
2018-09-02T13:23:40.510Z,23.53
2018-09-02T13:24:40.811Z,23.51
2018-09-02T13:25:40.557Z,23.57
2018-09-02T13:26:54.988Z,23.39
2018-09-02T13:29:40.674Z,23.66
2018-09-02T13:30:40.680Z,23.78
2018-09-02T13:31:40.473Z,23.87
2018-09-02T13:32:40.734Z,23.98
2018-09-02T13:33:40.855Z,24.13
2018-09-02T13:34:40.528Z,24.16
2018-09-02T13:35:40.294Z,24.25
2018-09-02T13:36:40.838Z,24.27
2018-09-02T13:37:40.863Z,24.27
2018-09-02T13:38:40.626Z,24.35
2018-09-02T13:39:40.910Z,24.45
2018-09-02T13:40:40.936Z,24.28
2018-09-02T13:41:40.959Z,24.4
2018-09-02T13:43:41.016Z,24.4
2018-09-02T13:44:41.037Z,24.24
2018-09-02T13:45:40.803Z,24.32
2018-09-02T13:46:41.088Z,24.28
2018-09-02T13:47:40.854Z,24.34
2018-09-02T13:48:41.531Z,24.25
2018-09-02T13:49:41.176Z,24.16
2018-09-02T13:50:41.187Z,24.25
2018-09-02T13:51:41.168Z,24.34